Time;durP1;ratioP1;P1;durP2;ratioP2;P2;SDS_P1;SDS_P2;PMS_P1;PMS_P2;Temp;Humidity;BMP_temperature;BMP_pressure;BME280_temperature;BME280_humidity;BME280_pressure;Samples;Min_cycle;Max_cycle;Signal;HPM_P1;HPM_P2
2021/08/19 00:01:16;;;;;;;3.03;1.80;;;;;;;18.37;77.58;97909.72;5025894;28;20032;-65
2021/08/19 00:03:42;;;;;;;3.65;1.70;;;;;;;18.14;78.72;97906.09;5023901;28;20013;-66
2021/08/19 00:06:07;;;;;;;2.38;1.65;;;;;;;18.12;78.13;97908.84;5024771;28;20376;-65
2021/08/19 00:08:32;;;;;;;3.03;1.70;;;;;;;18.16;78.30;97910.34;5024275;28;20639;-64
2021/08/19 00:10:58;;;;;;;3.88;1.58;;;;;;;17.98;79.12;97909.88;5029491;28;20458;-64
2021/08/19 00:13:23;;;;;;;2.97;1.60;;;;;;;18.07;79.24;97903.09;5029790;28;20083;-64
2021/08/19 00:15:50;;;;;;;2.28;1.40;;;;;;;18.19;79.03;97912.72;5028421;28;20029;-64
2021/08/19 00:18:15;;;;;;;2.28;1.40;;;;;;;18.26;78.52;97908.69;5029459;28;20035;-64
2021/08/19 00:20:41;;;;;;;2.80;1.58;;;;;;;18.17;78.77;97904.09;5029993;28;20041;-64
2021/08/19 00:23:06;;;;;;;2.75;1.70;;;;;;;17.89;80.15;97911.38;5027390;28;20108;-67
2021/08/19 00:25:36;;;;;;;3.13;1.70;;;;;;;18.01;79.47;97908.81;5030225;28;20112;-66
2021/08/19 00:28:01;;;;;;;4.95;1.60;;;;;;;17.96;79.43;97905.66;5027510;28;20112;-63
2021/08/19 00:30:27;;;;;;;4.65;1.73;;;;;;;17.88;79.80;97901.81;5028648;28;20124;-64
2021/08/19 00:32:52;;;;;;;3.10;1.55;;;;;;;18.00;79.84;97904.50;5022753;28;20061;-65
2021/08/19 00:35:17;;;;;;;4.40;1.75;;;;;;;18.27;78.46;97902.47;5030717;28;20039;-65
2021/08/19 00:37:43;;;;;;;2.50;1.50;;;;;;;18.38;78.10;97901.69;5028434;28;20029;-64
2021/08/19 00:40:08;;;;;;;2.92;1.60;;;;;;;17.86;79.93;97897.56;5026807;28;20770;-64
2021/08/19 00:42:34;;;;;;;2.20;1.40;;;;;;;18.40;78.28;97893.66;5023621;28;20674;-65
2021/08/19 00:44:59;;;;;;;3.13;1.90;;;;;;;17.92;80.07;97895.34;5028281;28;20107;-64
2021/08/19 00:47:29;;;;;;;2.50;1.60;;;;;;;17.88;80.59;97891.25;5026938;28;20033;-64
2021/08/19 00:49:59;;;;;;;2.42;1.60;;;;;;;18.14;79.15;97883.22;5026229;28;20025;-64
2021/08/19 00:52:25;;;;;;;3.75;1.73;;;;;;;18.16;79.40;97886.59;5030140;28;21123;-65
2021/08/19 00:54:51;;;;;;;2.10;1.40;;;;;;;18.07;79.48;97881.97;5028126;28;20032;-66
2021/08/19 00:57:17;;;;;;;2.92;1.70;;;;;;;17.83;80.53;97882.78;5027430;28;20017;-64
2021/08/19 00:59:43;;;;;;;3.30;1.67;;;;;;;18.03;79.98;97876.09;5027522;28;20091;-66
2021/08/19 01:02:09;;;;;;;2.38;1.70;;;;;;;18.03;80.15;97875.22;5028014;28;20132;-65
2021/08/19 01:04:38;;;;;;;5.32;1.63;;;;;;;18.18;79.17;97879.41;5029272;28;20099;-65
2021/08/19 01:07:05;;;;;;;3.10;1.63;;;;;;;18.08;79.81;97876.56;5029356;28;20704;-67
2021/08/19 01:09:30;;;;;;;4.05;1.70;;;;;;;18.16;79.56;97869.88;5028478;28;20032;-67
2021/08/19 01:11:56;;;;;;;2.92;1.90;;;;;;;18.03;79.97;97875.22;5030531;28;20687;-67
2021/08/19 01:14:21;;;;;;;2.70;1.73;;;;;;;18.00;80.27;97872.81;5027883;28;20573;-65
2021/08/19 01:16:48;;;;;;;2.70;1.67;;;;;;;17.73;81.31;97879.13;5027495;28;20040;-64
2021/08/19 01:19:18;;;;;;;2.90;1.70;;;;;;;18.07;80.27;97874.06;5027892;28;20118;-65
2021/08/19 01:21:46;;;;;;;2.50;1.50;;;;;;;17.96;80.97;97874.00;5025601;28;20035;-66
2021/08/19 01:24:12;;;;;;;3.83;1.70;;;;;;;17.85;81.46;97878.28;5025792;28;20119;-64
2021/08/19 01:26:38;;;;;;;3.03;1.88;;;;;;;18.04;80.67;97872.47;5027185;28;20095;-67
2021/08/19 01:29:04;;;;;;;3.72;1.73;;;;;;;18.06;80.64;97869.72;5028558;28;20028;-65
2021/08/19 01:31:30;;;;;;;3.38;1.85;;;;;;;17.90;81.37;97865.59;5027700;28;20052;-66
2021/08/19 01:33:56;;;;;;;2.88;1.70;;;;;;;17.79;81.80;97873.41;5028588;28;20033;-66
2021/08/19 01:36:21;;;;;;;2.47;1.60;;;;;;;17.82;81.83;97862.63;5025588;28;20033;-65
2021/08/19 01:38:49;;;;;;;3.75;1.80;;;;;;;17.91;81.51;97872.53;5026570;28;20438;-67
2021/08/19 01:41:14;;;;;;;3.75;1.60;;;;;;;17.88;81.37;97878.06;5027395;28;20026;-67
2021/08/19 01:43:40;;;;;;;2.53;1.70;;;;;;;17.87;81.71;97871.06;5025194;28;20014;-68
2021/08/19 01:46:08;;;;;;;2.63;1.70;;;;;;;17.63;82.87;97878.09;5028207;28;20120;-64
2021/08/19 01:48:34;;;;;;;5.43;1.85;;;;;;;17.81;82.58;97871.50;5022885;28;20033;-67
2021/08/19 01:50:59;;;;;;;2.70;1.80;;;;;;;18.14;80.42;97875.31;5026896;28;20108;-65
2021/08/19 01:53:25;;;;;;;5.80;2.13;;;;;;;17.79;82.19;97873.41;5025280;28;20032;-65
2021/08/19 01:55:51;;;;;;;2.42;1.75;;;;;;;17.59;83.33;97868.72;5026908;28;20064;-68
2021/08/19 01:58:17;;;;;;;3.80;1.80;;;;;;;17.72;82.54;97877.44;5024815;28;20025;-66
2021/08/19 02:00:46;;;;;;;3.83;1.80;;;;;;;17.96;81.39;97868.72;5026601;28;20033;-67
2021/08/19 02:03:12;;;;;;;3.40;1.90;;;;;;;17.64;82.71;97864.78;5025896;28;20064;-65
2021/08/19 02:05:38;;;;;;;3.03;1.95;;;;;;;17.73;82.33;97876.47;5026878;28;20091;-65
2021/08/19 02:08:08;;;;;;;3.15;2.10;;;;;;;17.66;82.36;97872.59;5024684;28;20083;-66
2021/08/19 02:10:34;;;;;;;2.92;1.90;;;;;;;17.95;81.53;97874.97;5024672;28;20612;-65
2021/08/19 02:13:00;;;;;;;2.60;1.75;;;;;;;17.79;82.42;97873.41;5025530;28;20032;-65
2021/08/19 02:15:25;;;;;;;3.15;1.85;;;;;;;17.73;82.40;97873.84;5027925;28;20043;-68
2021/08/19 02:17:50;;;;;;;3.00;1.83;;;;;;;17.64;83.10;97874.50;5024616;28;20112;-67
2021/08/19 02:20:16;;;;;;;2.75;1.90;;;;;;;17.76;82.23;97873.63;5024728;28;20032;-66
2021/08/19 02:22:41;;;;;;;3.65;2.00;;;;;;;17.70;82.52;97880.19;5023844;28;20025;-65
2021/08/19 02:25:07;;;;;;;2.83;1.90;;;;;;;17.88;81.94;97867.50;5027173;28;20033;-66
2021/08/19 02:27:32;;;;;;;3.75;2.05;;;;;;;17.97;81.39;97873.03;5024409;28;20029;-68
2021/08/19 02:29:58;;;;;;;3.13;1.98;;;;;;;17.67;82.79;97869.00;5027873;28;20039;-65
2021/08/19 02:32:24;;;;;;;3.22;1.92;;;;;;;17.81;82.51;97871.50;5027761;28;20036;-65
2021/08/19 02:34:52;;;;;;;2.60;1.77;;;;;;;17.77;82.28;97874.47;5027605;28;20021;-65
2021/08/19 02:37:17;;;;;;;2.92;2.00;;;;;;;17.78;82.39;97871.72;5025650;28;20551;-66
2021/08/19 02:39:42;;;;;;;3.65;1.92;;;;;;;17.96;81.51;97869.56;5023975;28;20029;-65
2021/08/19 02:42:08;;;;;;;3.10;1.65;;;;;;;17.78;82.31;97866.44;5025588;28;20112;-65
2021/08/19 02:44:33;;;;;;;3.72;1.80;;;;;;;18.08;80.63;97867.81;5025564;28;20064;-66
2021/08/19 02:46:59;;;;;;;3.03;1.83;;;;;;;17.79;81.94;97868.13;5025652;28;20020;-66
2021/08/19 02:49:24;;;;;;;2.40;1.75;;;;;;;17.94;81.80;97866.22;5027870;28;20403;-65
2021/08/19 02:51:49;;;;;;;2.80;2.00;;;;;;;17.53;82.93;97864.72;5023491;28;20579;-67
2021/08/19 02:54:15;;;;;;;3.50;2.17;;;;;;;17.43;83.89;97863.72;5027481;28;20098;-67
2021/08/19 02:56:40;;;;;;;3.35;1.83;;;;;;;17.77;82.37;97864.75;5025088;28;20029;-65
2021/08/19 02:59:06;;;;;;;3.45;1.95;;;;;;;17.86;81.85;97864.09;5026359;28;20487;-66
2021/08/19 03:01:31;;;;;;;3.33;1.90;;;;;;;17.56;83.44;97866.31;5026292;28;20021;-67
2021/08/19 03:03:56;;;;;;;4.05;2.40;;;;;;;17.50;83.39;97863.16;5024956;28;20506;-66
2021/08/19 03:06:22;;;;;;;7.22;2.65;;;;;;;17.57;83.51;97862.72;5027406;28;20113;-66
2021/08/19 03:08:49;;;;;;;6.28;2.88;;;;;;;17.72;82.84;97859.81;5024017;28;20396;-65
2021/08/19 03:11:17;;;;;;;7.50;2.88;;;;;;;17.78;82.34;97866.44;5025259;28;20032;-68
2021/08/19 03:13:43;;;;;;;8.23;2.95;;;;;;;17.59;83.33;97866.06;5022204;28;20076;-65
2021/08/19 03:16:08;;;;;;;11.45;3.10;;;;;;;17.77;82.41;97863.91;5024309;28;20112;-67
2021/08/19 03:18:34;;;;;;;10.13;3.00;;;;;;;17.58;83.35;97859.97;5024937;28;20072;-67
2021/08/19 03:21:02;;;;;;;8.98;2.75;;;;;;;17.53;83.85;97857.69;5025595;28;20057;-66
2021/08/19 03:23:27;;;;;;;5.82;2.90;;;;;;;17.54;83.38;97858.50;5024889;28;20089;-66
2021/08/19 03:25:53;;;;;;;5.38;2.70;;;;;;;17.42;84.46;97860.22;5024758;28;20025;-65
2021/08/19 03:28:22;;;;;;;8.82;2.55;;;;;;;17.56;83.91;97856.59;5024901;28;20029;-66
2021/08/19 03:30:47;;;;;;;8.43;2.55;;;;;;;17.43;84.33;97855.81;5027050;28;20056;-66
2021/08/19 03:33:12;;;;;;;6.93;2.40;;;;;;;17.60;83.88;97854.59;5024965;28;20690;-67
2021/08/19 03:35:38;;;;;;;6.18;2.50;;;;;;;17.38;84.61;97857.91;5025809;28;20402;-67
2021/08/19 03:38:05;;;;;;;7.15;2.58;;;;;;;17.67;83.90;97853.19;5024952;28;20028;-68
2021/08/19 03:40:31;;;;;;;5.35;2.60;;;;;;;17.52;83.84;97863.88;5025913;28;20090;-65
2021/08/19 03:42:56;;;;;;;6.30;2.40;;;;;;;17.52;84.30;97865.69;5024073;28;20017;-66
2021/08/19 03:45:21;;;;;;;4.55;2.20;;;;;;;17.54;84.66;97861.97;5030334;28;20026;-67
2021/08/19 03:47:47;;;;;;;4.57;2.13;;;;;;;17.79;82.80;97865.50;5026896;28;20140;-67
2021/08/19 03:50:12;;;;;;;6.53;2.30;;;;;;;17.25;84.74;97860.56;5028080;28;20136;-67
2021/08/19 03:52:38;;;;;;;5.68;2.17;;;;;;;17.53;84.20;97872.63;5029358;28;20032;-67
2021/08/19 03:55:04;;;;;;;3.10;2.15;;;;;;;17.37;85.15;97862.34;5028332;28;20804;-65
2021/08/19 03:57:30;;;;;;;6.43;2.30;;;;;;;17.40;85.16;97874.47;5027780;28;20032;-68
2021/08/19 03:59:57;;;;;;;5.43;2.30;;;;;;;17.46;84.46;97866.97;5029387;28;20030;-67
2021/08/19 04:02:23;;;;;;;4.57;2.22;;;;;;;17.41;84.89;97878.78;5026594;28;20866;-67
2021/08/19 04:04:48;;;;;;;5.47;2.40;;;;;;;17.43;84.66;97877.72;5027763;28;20040;-67
2021/08/19 04:07:14;;;;;;;6.50;2.30;;;;;;;17.57;84.29;97871.47;5030239;28;20574;-68
2021/08/19 04:09:39;;;;;;;4.53;2.20;;;;;;;17.35;85.35;97866.91;5028560;28;20097;-65
2021/08/19 04:12:05;;;;;;;4.78;2.17;;;;;;;17.62;84.06;97860.59;5028809;28;20727;-67
2021/08/19 04:14:31;;;;;;;5.22;2.42;;;;;;;17.61;84.29;97869.44;5029179;28;20033;-66
2021/08/19 04:16:57;;;;;;;4.38;2.25;;;;;;;17.47;84.85;97873.91;5027944;28;20434;-66
2021/08/19 04:19:22;;;;;;;4.10;2.13;;;;;;;17.44;85.38;97868.88;5027708;28;20727;-68
2021/08/19 04:21:48;;;;;;;5.38;2.40;;;;;;;17.46;85.13;97866.97;5028620;28;20017;-66
2021/08/19 04:24:13;;;;;;;6.82;2.40;;;;;;;17.64;84.44;97870.06;5029714;28;20037;-65
2021/08/19 04:26:39;;;;;;;5.28;2.42;;;;;;;17.61;84.22;97877.34;5029701;28;20021;-66
2021/08/19 04:29:04;;;;;;;4.20;2.40;;;;;;;17.67;84.27;97880.41;5027045;28;20029;-65
2021/08/19 04:31:29;;;;;;;6.35;2.60;;;;;;;17.47;85.10;97881.81;5027397;28;20028;-67
2021/08/19 04:33:55;;;;;;;4.57;2.50;;;;;;;17.66;83.93;97877.88;5027164;28;20112;-68
2021/08/19 04:36:20;;;;;;;3.85;2.53;;;;;;;17.61;84.32;97879.97;5025516;28;20026;-65
2021/08/19 04:38:45;;;;;;;3.33;2.40;;;;;;;17.42;85.42;97881.31;5027973;28;20083;-66
2021/08/19 04:41:11;;;;;;;5.00;2.60;;;;;;;17.37;85.57;97880.81;5029377;28;20031;-65
2021/08/19 04:43:36;;;;;;;3.42;2.45;;;;;;;17.49;85.24;97879.09;5029618;28;20029;-64
2021/08/19 04:46:01;;;;;;;4.28;2.35;;;;;;;17.64;84.61;97879.78;5026167;28;20782;-67
2021/08/19 04:48:27;;;;;;;3.67;2.40;;;;;;;17.52;85.42;97877.06;5026811;28;20511;-65
2021/08/19 04:50:52;;;;;;;4.35;2.40;;;;;;;17.53;84.90;97878.78;5027137;28;20019;-64
2021/08/19 04:53:17;;;;;;;5.68;2.90;;;;;;;17.20;85.98;97881.13;5029522;28;20021;-65
2021/08/19 04:55:43;;;;;;;4.50;2.50;;;;;;;17.49;85.06;97879.91;5029985;28;20032;-65
2021/08/19 04:58:11;;;;;;;3.60;2.40;;;;;;;17.34;85.65;97879.22;5030247;28;20449;-66
2021/08/19 05:00:36;;;;;;;4.88;2.75;;;;;;;17.51;85.20;97890.34;5027432;28;20116;-66
2021/08/19 05:03:04;;;;;;;3.88;2.30;;;;;;;17.90;83.13;97884.06;5020241;28;20025;-64
2021/08/19 05:05:29;;;;;;;3.72;2.33;;;;;;;17.88;83.30;97883.34;5029425;28;20113;-67
2021/08/19 05:07:55;;;;;;;3.75;2.65;;;;;;;17.79;83.80;97883.97;5029306;28;20155;-67
2021/08/19 05:10:20;;;;;;;3.53;2.63;;;;;;;17.64;84.19;97880.59;5031909;28;20103;-67
2021/08/19 05:12:45;;;;;;;4.25;3.17;;;;;;;17.52;84.74;97876.22;5029138;28;20430;-68
2021/08/19 05:15:11;;;;;;;4.50;2.80;;;;;;;17.66;84.63;97884.00;5031449;28;20384;-66
2021/08/19 05:17:36;;;;;;;3.85;2.85;;;;;;;17.58;84.26;97877.59;5030864;28;20028;-66
2021/08/19 05:20:02;;;;;;;6.18;3.10;;;;;;;17.56;84.62;97879.50;5030544;28;20024;-65
2021/08/19 05:22:27;;;;;;;4.93;3.40;;;;;;;17.33;85.65;97876.69;5028094;28;20022;-66
2021/08/19 05:24:53;;;;;;;4.00;2.95;;;;;;;17.83;83.66;97874.88;5027366;28;20574;-65
2021/08/19 05:27:18;;;;;;;6.18;3.22;;;;;;;17.65;84.41;97881.47;5033645;28;20113;-65
2021/08/19 05:29:43;;;;;;;6.90;3.58;;;;;;;17.79;83.69;97873.41;5031882;28;20394;-64
2021/08/19 05:32:08;;;;;;;5.03;3.40;;;;;;;17.85;82.91;97877.44;5030024;28;20028;-66
2021/08/19 05:34:34;;;;;;;5.28;3.70;;;;;;;17.76;83.77;97873.63;5030470;28;20029;-66
2021/08/19 05:36:59;;;;;;;3.78;3.03;;;;;;;17.80;83.58;97872.44;5030925;28;20021;-66
2021/08/19 05:39:24;;;;;;;5.50;3.05;;;;;;;17.73;84.02;97879.13;5029912;28;20036;-65
2021/08/19 05:41:50;;;;;;;6.68;3.70;;;;;;;17.48;85.66;97890.59;5028265;28;20032;-66
2021/08/19 05:44:15;;;;;;;5.38;3.33;;;;;;;17.96;83.95;97884.53;5028652;28;20025;-66
2021/08/19 05:46:41;;;;;;;5.57;3.30;;;;;;;18.01;83.60;97882.41;5029479;28;20076;-66
2021/08/19 05:49:07;;;;;;;4.47;3.25;;;;;;;18.08;83.00;97887.13;5029867;28;20040;-65
2021/08/19 05:51:33;;;;;;;4.03;3.28;;;;;;;18.21;82.28;97889.69;5029231;28;20029;-64
2021/08/19 05:53:58;;;;;;;5.63;3.50;;;;;;;18.11;82.33;97891.34;5029923;28;20037;-68
2021/08/19 05:56:23;;;;;;;4.45;3.00;;;;;;;18.23;82.23;97887.81;5027337;28;20032;-68
2021/08/19 05:58:49;;;;;;;5.35;3.22;;;;;;;17.86;83.86;97901.03;5029154;28;20128;-69
2021/08/19 06:01:14;;;;;;;5.32;3.38;;;;;;;18.03;84.02;97912.16;5028462;28;20415;-68
2021/08/19 06:03:40;;;;;;;4.60;3.45;;;;;;;18.03;82.98;97904.25;5030156;28;20045;-67
2021/08/19 06:06:05;;;;;;;5.15;3.85;;;;;;;18.01;82.44;97908.81;5028633;28;20055;-69
2021/08/19 06:08:31;;;;;;;5.68;3.65;;;;;;;18.40;80.53;97904.22;5027247;28;20052;-63
2021/08/19 06:10:56;;;;;;;5.03;3.75;;;;;;;18.39;80.73;97907.78;5030035;28;20395;-67
2021/08/19 06:13:21;;;;;;;6.72;3.80;;;;;;;18.49;80.87;97900.88;5028201;28;20640;-65
2021/08/19 06:15:46;;;;;;;8.20;3.85;;;;;;;18.39;81.14;97899.88;5027206;28;20093;-63
2021/08/19 06:18:12;;;;;;;6.85;4.00;;;;;;;18.50;80.57;97905.19;5027172;28;20037;-66
2021/08/19 06:20:37;;;;;;;10.25;4.88;;;;;;;18.74;81.42;97906.94;5027631;28;20028;-65
2021/08/19 06:23:10;;;;;;;6.25;3.88;;;;;;;18.45;80.25;97912.59;5026593;28;20029;-63
2021/08/19 06:25:36;;;;;;;9.23;4.28;;;;;;;18.48;80.92;97907.09;5026699;28;20060;-68
2021/08/19 06:28:02;;;;;;;7.10;3.60;;;;;;;18.73;80.82;97914.03;5027107;28;20135;-66
2021/08/19 06:30:27;;;;;;;6.03;3.35;;;;;;;18.97;79.40;97906.06;5027788;28;20045;-66
2021/08/19 06:32:52;;;;;;;5.43;3.50;;;;;;;18.62;80.60;97906.91;5027735;28;20567;-64
2021/08/19 06:35:18;;;;;;;11.13;3.90;;;;;;;19.47;77.81;97904.88;5030820;28;20037;-64
2021/08/19 06:37:43;;;;;;;8.30;3.80;;;;;;;18.95;78.84;97905.34;5029135;28;20493;-66
2021/08/19 06:40:09;;;;;;;6.10;3.30;;;;;;;18.78;79.04;97913.66;5027167;28;20048;-64
2021/08/19 06:42:34;;;;;;;5.65;3.80;;;;;;;18.74;78.93;97917.50;5027780;28;20040;-66
2021/08/19 06:45:00;;;;;;;5.32;3.30;;;;;;;19.06;77.68;97913.28;5027823;28;20025;-66
2021/08/19 06:47:25;;;;;;;6.47;3.25;;;;;;;19.13;77.60;97907.50;5025332;28;20087;-66
2021/08/19 06:49:50;;;;;;;9.50;3.40;;;;;;;18.90;78.47;97904.84;5024380;28;20074;-65
2021/08/19 06:52:16;;;;;;;6.00;3.30;;;;;;;18.91;77.96;97909.16;5026036;28;20068;-66
2021/08/19 06:54:41;;;;;;;4.22;3.05;;;;;;;19.17;78.07;97906.31;5027642;28;20027;-67
2021/08/19 06:57:07;;;;;;;4.70;3.50;;;;;;;18.88;77.36;97914.69;5026196;28;20037;-66
2021/08/19 06:59:32;;;;;;;4.75;3.20;;;;;;;19.18;78.32;97915.94;5028378;28;20027;-64
2021/08/19 07:01:58;;;;;;;7.60;2.97;;;;;;;19.10;77.64;97913.03;5030237;28;20065;-66
2021/08/19 07:04:23;;;;;;;6.07;3.40;;;;;;;19.31;76.46;97916.66;5025815;28;20112;-64
2021/08/19 07:06:48;;;;;;;4.97;3.17;;;;;;;19.14;77.42;97914.50;5028427;28;20061;-67
2021/08/19 07:09:14;;;;;;;5.57;3.03;;;;;;;19.43;76.04;97915.69;5029158;28;20733;-68
2021/08/19 07:11:40;;;;;;;5.25;2.88;;;;;;;19.53;75.59;97915.81;5028663;28;20049;-65
2021/08/19 07:14:05;;;;;;;5.00;2.92;;;;;;;19.62;74.91;97916.88;5026197;28;20399;-66
2021/08/19 07:16:31;;;;;;;4.32;3.10;;;;;;;19.47;75.47;97915.47;5028436;28;20414;-66
2021/08/19 07:18:56;;;;;;;6.28;2.80;;;;;;;19.96;74.46;97922.16;5033629;28;20032;-66
2021/08/19 07:21:21;;;;;;;4.50;3.15;;;;;;;19.99;74.46;97921.91;5033334;28;20766;-64
2021/08/19 07:23:47;;;;;;;5.30;2.90;;;;;;;19.62;75.05;97914.25;5032962;28;20862;-65
2021/08/19 07:26:12;;;;;;;4.90;3.03;;;;;;;19.64;74.24;97917.59;5032535;28;20032;-65
2021/08/19 07:28:37;;;;;;;4.35;3.17;;;;;;;19.73;74.02;97910.78;5035177;28;20029;-65
2021/08/19 07:31:03;;;;;;;4.60;3.33;;;;;;;19.99;73.61;97919.25;5034457;28;20056;-65
2021/08/19 07:33:28;;;;;;;4.13;3.08;;;;;;;20.00;72.81;97915.66;5033486;28;20083;-66
2021/08/19 07:35:53;;;;;;;5.35;3.35;;;;;;;19.76;73.74;97911.38;5033473;28;20029;-65
2021/08/19 07:38:19;;;;;;;5.22;2.90;;;;;;;20.33;72.26;97919.19;5033615;28;20468;-65
2021/08/19 07:40:46;;;;;;;6.15;3.05;;;;;;;21.20;69.64;97920.78;5032144;28;20028;-67
2021/08/19 07:43:12;;;;;;;4.63;3.55;;;;;;;20.29;71.07;97913.28;5033201;28;20095;-67
2021/08/19 07:45:38;;;;;;;5.80;3.35;;;;;;;20.89;70.04;97918.91;5036753;28;20021;-66
2021/08/19 07:48:11;;;;;;;4.22;2.92;;;;;;;20.67;70.50;97917.22;5030963;28;20128;-65
2021/08/19 07:50:37;;;;;;;4.68;3.08;;;;;;;21.02;69.49;97909.91;5032894;28;20027;-65
2021/08/19 07:53:04;;;;;;;5.38;2.97;;;;;;;21.44;67.48;97916.00;5034109;28;20025;-68
2021/08/19 07:55:29;;;;;;;7.57;3.05;;;;;;;20.89;68.76;97910.13;5032106;28;20793;-66
2021/08/19 07:57:55;;;;;;;3.60;2.83;;;;;;;21.42;68.34;97919.75;5033833;28;20520;-65
2021/08/19 08:00:31;;;;;;;4.22;2.90;;;;;;;20.94;68.41;97919.38;5033905;28;20021;-67
2021/08/19 08:02:57;;;;;;;6.22;3.17;;;;;;;21.27;68.74;97916.63;5033060;28;20017;-67
2021/08/19 08:05:24;;;;;;;4.75;2.50;;;;;;;21.58;67.69;97919.28;5034359;28;20029;-64
2021/08/19 08:07:51;;;;;;;4.57;2.90;;;;;;;21.56;68.52;97916.78;5031945;28;20430;-65
2021/08/19 08:10:16;;;;;;;7.82;2.60;;;;;;;21.22;69.40;97917.00;5034951;28;20028;-65
2021/08/19 08:12:42;;;;;;;3.72;2.65;;;;;;;21.15;70.57;97921.16;5033262;28;20072;-65
2021/08/19 08:15:08;;;;;;;5.75;3.20;;;;;;;20.50;71.04;97920.44;5033586;28;20764;-66
2021/08/19 08:17:35;;;;;;;6.75;2.80;;;;;;;20.73;70.31;97927.34;5034335;28;20039;-65
2021/08/19 08:20:01;;;;;;;5.20;3.03;;;;;;;20.79;71.72;97925.97;5033516;28;20028;-67
2021/08/19 08:22:26;;;;;;;3.83;2.92;;;;;;;20.41;71.51;97922.03;5032601;28;20021;-68
2021/08/19 08:24:51;;;;;;;5.72;2.90;;;;;;;20.55;69.94;97929.66;5032305;28;20033;-65
2021/08/19 08:27:17;;;;;;;6.20;3.38;;;;;;;20.50;69.99;97931.03;5031307;28;20033;-66
2021/08/19 08:29:42;;;;;;;6.10;3.58;;;;;;;20.31;71.12;97931.69;5033463;28;20025;-66
2021/08/19 08:32:10;;;;;;;4.00;2.60;;;;;;;20.52;70.48;97935.22;5031512;28;20037;-66
2021/08/19 08:34:39;;;;;;;4.32;3.10;;;;;;;20.62;69.41;97935.31;5031389;28;20168;-67
2021/08/19 08:37:04;;;;;;;5.55;2.85;;;;;;;21.68;67.48;97936.09;5029981;28;20016;-65
2021/08/19 08:39:32;;;;;;;5.07;2.80;;;;;;;21.63;65.77;97941.78;5029754;28;20375;-65
2021/08/19 08:41:57;;;;;;;4.55;2.42;;;;;;;21.06;67.40;97943.16;5031399;28;20028;-66
2021/08/19 08:44:28;;;;;;;4.50;2.42;;;;;;;21.62;65.51;97944.59;5031170;28;20501;-65
2021/08/19 08:46:58;;;;;;;4.80;2.40;;;;;;;21.23;68.42;97950.53;5029756;28;20036;-66
2021/08/19 08:49:24;;;;;;;5.90;2.20;;;;;;;20.49;72.38;97955.81;5029266;28;20025;-67
2021/08/19 08:51:54;;;;;;;3.60;2.55;;;;;;;20.35;73.82;97949.03;5028406;28;20044;-67
2021/08/19 08:54:20;;;;;;;3.78;2.45;;;;;;;19.90;75.04;97954.41;5029736;28;20025;-67
2021/08/19 08:56:45;;;;;;;3.55;2.30;;;;;;;20.12;75.83;97953.53;5031703;28;20028;-67
2021/08/19 08:59:10;;;;;;;5.68;2.20;;;;;;;20.19;74.00;97952.91;5030595;28;20029;-67
2021/08/19 09:01:36;;;;;;;3.92;2.33;;;;;;;20.49;73.82;97950.53;5029603;28;20029;-65
2021/08/19 09:04:03;;;;;;;2.75;1.92;;;;;;;20.64;73.97;97944.00;5029803;28;20024;-65
2021/08/19 09:06:39;;;;;;;4.25;2.63;;;;;;;21.19;70.58;97943.78;5030607;28;20039;-66
2021/08/19 09:09:18;;;;;;;3.90;2.20;;;;;;;21.17;70.55;97949.25;5037227;28;20085;-67
2021/08/19 09:11:46;;;;;;;3.80;2.10;;;;;;;21.98;68.49;97945.78;5029293;28;20013;-65
2021/08/19 09:14:23;;;;;;;3.67;2.17;;;;;;;20.81;69.62;97950.53;5028615;28;20079;-67
2021/08/19 09:16:49;;;;;;;2.97;2.00;;;;;;;21.25;69.32;97942.44;5028904;28;20508;-66
2021/08/19 09:19:20;;;;;;;3.10;2.00;;;;;;;21.79;69.79;97948.41;5030465;28;20033;-68
2021/08/19 09:21:59;;;;;;;4.65;2.10;;;;;;;21.25;69.71;97940.63;5028750;28;20844;-67
2021/08/19 09:24:30;;;;;;;3.70;2.10;;;;;;;21.40;69.05;97940.28;5028588;28;20029;-67
2021/08/19 09:27:14;;;;;;;3.03;2.00;;;;;;;20.96;68.74;97937.78;5030245;28;20036;-65
2021/08/19 09:29:41;;;;;;;7.38;2.20;;;;;;;21.37;67.58;97947.50;5029386;28;20101;-67
2021/08/19 09:32:08;;;;;;;3.60;1.92;;;;;;;22.34;64.29;97940.88;5031446;28;20099;-66
2021/08/19 09:34:34;;;;;;;6.30;2.20;;;;;;;21.89;65.50;97936.00;5030612;28;20020;-65
2021/08/19 09:37:06;;;;;;;3.65;2.10;;;;;;;22.22;63.72;97941.94;5029009;28;20993;-68
2021/08/19 09:39:37;;;;;;;3.78;2.00;;;;;;;21.94;64.47;97936.44;5029008;28;20032;-65
2021/08/19 09:42:04;;;;;;;4.70;2.15;;;;;;;22.17;63.82;97922.94;5030321;28;20032;-65
2021/08/19 09:44:33;;;;;;;4.13;2.10;;;;;;;23.19;61.00;97919.81;5030059;28;20545;-66
2021/08/19 09:47:01;;;;;;;3.85;2.00;;;;;;;23.86;58.39;97916.06;5029016;28;20114;-66
2021/08/19 09:49:29;;;;;;;3.65;2.00;;;;;;;24.10;58.97;97916.50;5031060;28;20036;-67
2021/08/19 09:51:58;;;;;;;3.30;2.00;;;;;;;23.29;61.01;97920.63;5030308;28;20246;-66
2021/08/19 09:54:31;;;;;;;2.88;2.03;;;;;;;22.37;61.34;97914.03;5029601;28;20040;-65
2021/08/19 09:56:57;;;;;;;3.72;2.17;;;;;;;22.81;60.71;97922.41;5028776;28;20033;-68
2021/08/19 09:59:25;;;;;;;2.50;1.80;;;;;;;22.86;61.64;97914.81;5028900;28;20032;-66
2021/08/19 10:01:52;;;;;;;2.92;2.05;;;;;;;22.44;62.52;97920.47;5029600;28;20029;-66
2021/08/19 10:04:18;;;;;;;2.80;2.08;;;;;;;22.51;62.74;97910.91;5030042;28;20075;-66
2021/08/19 10:06:45;;;;;;;3.28;1.92;;;;;;;22.49;62.82;97909.41;5029209;28;20078;-67
2021/08/19 10:09:11;;;;;;;4.38;2.20;;;;;;;22.47;62.84;97914.84;5029764;28;20033;-66
2021/08/19 10:11:39;;;;;;;3.47;2.00;;;;;;;21.89;64.21;97909.44;5029900;28;20028;-65
2021/08/19 10:14:04;;;;;;;7.18;1.98;;;;;;;21.97;64.08;97914.94;5029954;28;20904;-67
2021/08/19 10:16:30;;;;;;;3.08;1.90;;;;;;;21.80;64.76;97912.91;5030776;28;20475;-65
2021/08/19 10:19:19;;;;;;;2.95;1.85;;;;;;;21.74;65.48;97912.50;5031199;28;20056;-65
2021/08/19 10:21:50;;;;;;;3.10;1.92;;;;;;;21.76;65.70;97915.00;5027802;28;20128;-65
2021/08/19 10:24:17;;;;;;;6.00;1.70;;;;;;;21.50;65.48;97909.34;5030257;28;20543;-66
2021/08/19 10:26:43;;;;;;;3.92;1.90;;;;;;;21.10;67.41;97918.91;5030504;28;20119;-67
2021/08/19 10:29:08;;;;;;;3.65;1.98;;;;;;;21.46;65.99;97913.25;5029306;28;20135;-66
2021/08/19 10:31:36;;;;;;;3.80;1.92;;;;;;;21.40;66.69;97913.75;5030207;28;20035;-68
2021/08/19 10:34:03;;;;;;;6.60;2.30;;;;;;;21.11;68.96;97914.44;5028854;28;20029;-66
2021/08/19 10:36:28;;;;;;;2.38;1.75;;;;;;;21.13;69.29;97923.09;5026989;28;20534;-66
2021/08/19 10:39:16;;;;;;;2.90;1.90;;;;;;;21.36;68.91;97921.97;5028262;28;20029;-65
2021/08/19 10:41:41;;;;;;;4.68;2.05;;;;;;;21.18;68.52;97926.19;5030787;28;20260;-66
2021/08/19 10:44:09;;;;;;;3.65;2.10;;;;;;;21.30;67.84;97921.66;5028513;28;20054;-65
2021/08/19 10:46:49;;;;;;;4.80;2.42;;;;;;;21.74;66.89;97916.94;5027824;28;20719;-64
2021/08/19 10:49:30;;;;;;;2.75;1.90;;;;;;;22.20;66.86;97912.84;5026227;28;20056;-67
2021/08/19 10:52:07;;;;;;;3.45;2.20;;;;;;;23.27;63.33;97914.63;5028415;28;20037;-66
2021/08/19 10:54:39;;;;;;;4.93;1.90;;;;;;;23.55;60.58;97915.50;5025752;28;20618;-65
2021/08/19 10:57:33;;;;;;;3.03;1.90;;;;;;;23.37;59.62;97911.91;5028207;28;20040;-65
2021/08/19 11:00:10;;;;;;;2.55;1.70;;;;;;;23.49;59.71;97913.41;5028414;28;20035;-67
2021/08/19 11:02:38;;;;;;;3.25;1.80;;;;;;;23.79;59.15;97906.13;5028862;28;20037;-65
2021/08/19 11:05:05;;;;;;;2.58;1.67;;;;;;;24.00;58.26;97909.38;5027885;28;20182;-65
2021/08/19 11:07:50;;;;;;;2.50;1.73;;;;;;;23.91;57.53;97902.28;5028187;28;20049;-65
2021/08/19 11:10:36;;;;;;;4.28;1.52;;;;;;;24.73;55.72;97911.09;5029331;28;20407;-66
2021/08/19 11:13:07;;;;;;;3.10;1.70;;;;;;;23.54;57.85;97908.47;5027001;28;20037;-67
2021/08/19 11:15:39;;;;;;;3.60;1.50;;;;;;;23.85;58.74;97910.88;5029470;28;20086;-67
2021/08/19 11:18:04;;;;;;;3.17;1.58;;;;;;;23.55;58.79;97904.84;5026978;28;20529;-64
2021/08/19 11:20:32;;;;;;;2.42;1.58;;;;;;;23.82;57.69;97903.16;5029528;28;20040;-67
2021/08/19 11:23:04;;;;;;;2.30;1.60;;;;;;;23.48;57.92;97898.41;5027894;28;20024;-66
2021/08/19 11:25:32;;;;;;;2.45;1.60;;;;;;;23.63;58.50;97899.59;5030198;28;20487;-64
2021/08/19 11:28:17;;;;;;;3.60;1.90;;;;;;;23.73;58.38;97901.38;5026335;28;20692;-66
2021/08/19 11:30:47;;;;;;;3.47;1.67;;;;;;;23.56;59.01;97905.66;5028133;28;20562;-66
2021/08/19 11:33:21;;;;;;;3.00;1.70;;;;;;;23.14;60.10;97904.31;5029313;28;20041;-65